createdAt,value
2018-06-04T00:00:10.221Z,97710.58
2018-06-04T00:02:39.159Z,97715.81
2018-06-04T00:05:08.299Z,97710.12
2018-06-04T00:07:37.555Z,97707.18
2018-06-04T00:10:06.654Z,97705.11
2018-06-04T00:12:35.678Z,97700.31
2018-06-04T00:15:05.145Z,97700.96
2018-06-04T00:17:34.191Z,97697.06
2018-06-04T00:20:03.250Z,97690.22
2018-06-04T00:22:32.481Z,97692.09
2018-06-04T00:25:03.281Z,97691.37
2018-06-04T00:27:32.626Z,97686.61
2018-06-04T00:30:01.993Z,97683.87
2018-06-04T00:32:31.252Z,97683.17
2018-06-04T00:35:00.341Z,97679.56
2018-06-04T00:37:29.427Z,97678.48
2018-06-04T00:39:58.570Z,97682.02
2018-06-04T00:42:27.686Z,97674.47
2018-06-04T00:44:56.581Z,97670.88
2018-06-04T00:47:25.578Z,97672.41
2018-06-04T00:49:54.540Z,97669.50
2018-06-04T00:52:23.910Z,97671.20
2018-06-04T00:54:53.163Z,97665.81
2018-06-04T00:57:22.477Z,97665.89
2018-06-04T00:59:51.823Z,97666.42
2018-06-04T01:02:20.956Z,97666.06
2018-06-04T01:04:50.124Z,97665.39
2018-06-04T01:07:19.072Z,97663.86
2018-06-04T01:09:48.312Z,97663.52
2018-06-04T01:12:17.679Z,97657.62
2018-06-04T01:14:46.788Z,97656.67
2018-06-04T01:17:15.920Z,97658.75
2018-06-04T01:19:45.111Z,97653.02
2018-06-04T01:22:14.186Z,97654.89
2018-06-04T01:24:43.709Z,97648.70
2018-06-04T01:27:12.824Z,97649.78
2018-06-04T01:29:42.200Z,97652.10
2018-06-04T01:32:11.164Z,97651.81
2018-06-04T01:34:40.422Z,97647.49
2018-06-04T01:37:09.421Z,97638.50
2018-06-04T01:39:39.259Z,97640.29
2018-06-04T01:42:08.162Z,97636.77
2018-06-04T01:44:37.044Z,97636.71
2018-06-04T01:47:06.270Z,97638.58
2018-06-04T01:49:35.337Z,97637.28
2018-06-04T01:52:04.338Z,97635.67
2018-06-04T01:54:33.270Z,97639.56
2018-06-04T01:57:02.267Z,97634.09
2018-06-04T01:59:31.595Z,97630.52
2018-06-04T02:02:00.646Z,97631.67
2018-06-04T02:04:30.416Z,97627.58
2018-06-04T02:06:59.431Z,97626.20
2018-06-04T02:09:28.350Z,97619.29
2018-06-04T02:11:57.644Z,97620.29
2018-06-04T02:14:26.773Z,97623.04
2018-06-04T02:16:56.033Z,97622.98
2018-06-04T02:19:25.038Z,97622.11
2018-06-04T02:21:54.370Z,97624.20
2018-06-04T02:24:23.778Z,97619.08
2018-06-04T02:26:52.896Z,97614.92
2018-06-04T02:29:22.074Z,97619.75
2018-06-04T02:31:51.015Z,97607.30
2018-06-04T02:34:20.654Z,97611.10
2018-06-04T02:36:49.713Z,97603.11
2018-06-04T02:39:18.894Z,97595.86
2018-06-04T02:41:47.731Z,97602.69
2018-06-04T02:44:16.665Z,97596.38
2018-06-04T02:46:45.637Z,97598.23
2018-06-04T02:49:14.503Z,97602.27
2018-06-04T02:51:43.345Z,97604.70
2018-06-04T02:54:12.367Z,97605.86
2018-06-04T02:56:41.493Z,97604.28
2018-06-04T02:59:10.518Z,97601.34
2018-06-04T03:01:39.825Z,97592.11
2018-06-04T03:04:08.915Z,97592.05
2018-06-04T03:06:38.092Z,97594.78
2018-06-04T03:09:09.623Z,97591.47
2018-06-04T03:11:45.118Z,97594.84
2018-06-04T03:14:14.095Z,97598.00
2018-06-04T03:16:43.481Z,97601.03
2018-06-04T03:19:12.607Z,97607.02
2018-06-04T03:21:43.048Z,97603.98
2018-06-04T03:24:13.162Z,97603.55
2018-06-04T03:26:59.468Z,97606.28
2018-06-04T03:29:28.799Z,97604.12
2018-06-04T03:31:58.306Z,97607.92
2018-06-04T03:34:29.761Z,97613.32
2018-06-04T03:36:59.096Z,97607.86
2018-06-04T03:39:29.407Z,97611.53
2018-06-04T03:41:58.630Z,97616.27
2018-06-04T03:44:38.365Z,97613.69
2018-06-04T03:47:07.822Z,97614.39
2018-06-04T03:49:38.182Z,97614.12
2018-06-04T03:52:08.764Z,97617.16
2018-06-04T03:54:39.535Z,97617.16
2018-06-04T03:57:08.825Z,97615.42
2018-06-04T03:59:38.660Z,97622.46
2018-06-04T04:02:08.552Z,97623.98
2018-06-04T04:04:38.582Z,97616.78
2018-06-04T04:07:07.880Z,97614.99
2018-06-04T04:09:37.957Z,97620.88
2018-06-04T04:12:07.364Z,97621.76
2018-06-04T04:14:37.683Z,97612.47
2018-06-04T04:17:07.760Z,97617.23
2018-06-04T04:19:39.182Z,97615.55
2018-06-04T04:22:09.376Z,97623.75
2018-06-04T04:24:38.801Z,97611.17
2018-06-04T04:27:18.520Z,97616.48
2018-06-04T04:29:49.414Z,97614.55
2018-06-04T04:32:19.684Z,97613.11
2018-06-04T04:34:49.064Z,97619.08
2018-06-04T04:37:18.889Z,97621.02
2018-06-04T04:39:48.450Z,97608.93
2018-06-04T04:42:18.037Z,97608.44
2018-06-04T04:44:47.189Z,97613.80
2018-06-04T04:47:16.331Z,97614.75
2018-06-04T04:49:45.462Z,97608.72
2018-06-04T04:52:14.586Z,97616.78
2018-06-04T04:54:44.698Z,97613.38
2018-06-04T04:57:13.605Z,97615.13
2018-06-04T04:59:43.027Z,97622.02
2018-06-04T05:02:12.095Z,97612.06
2018-06-04T05:04:41.286Z,97614.52
2018-06-04T05:07:10.378Z,97623.87
2018-06-04T05:09:39.287Z,97617.42
2018-06-04T05:12:08.385Z,97619.41
2018-06-04T05:14:37.545Z,97612.98
2018-06-04T05:17:06.792Z,97607.97
2018-06-04T05:19:36.199Z,97614.97
2018-06-04T05:22:05.270Z,97616.18
2018-06-04T05:24:34.398Z,97616.30
2018-06-04T05:27:03.610Z,97615.17
2018-06-04T05:29:32.721Z,97614.54
2018-06-04T05:32:01.699Z,97616.16
2018-06-04T05:34:31.153Z,97610.34
2018-06-04T05:37:00.441Z,97603.22
2018-06-04T05:39:29.455Z,97605.61
2018-06-04T05:41:58.541Z,97602.23
2018-06-04T05:44:27.555Z,97602.88
2018-06-04T05:46:56.556Z,97602.48
2018-06-04T05:49:25.536Z,97608.05
2018-06-04T05:51:54.950Z,97605.17
2018-06-04T05:54:24.173Z,97613.41
2018-06-04T05:56:53.168Z,97603.38
2018-06-04T05:59:22.262Z,97607.91
2018-06-04T06:01:51.441Z,97603.79
2018-06-04T06:04:20.386Z,97603.91
2018-06-04T06:06:49.407Z,97600.33
2018-06-04T06:09:18.625Z,97601.28
2018-06-04T06:11:48.008Z,97598.87
2018-06-04T06:14:17.652Z,97594.11
2018-06-04T06:16:47.401Z,97600.76
2018-06-04T06:19:19.558Z,97598.30
2018-06-04T06:21:48.521Z,97598.91
2018-06-04T06:24:17.779Z,97590.05
2018-06-04T06:26:47.048Z,97594.34
2018-06-04T06:29:16.070Z,97596.02
2018-06-04T06:31:45.069Z,97589.85
2018-06-04T06:34:15.062Z,97590.91
2018-06-04T06:36:44.060Z,97589.66
2018-06-04T06:39:13.418Z,97583.77
2018-06-04T06:41:42.723Z,97583.14
2018-06-04T06:44:11.925Z,97586.30
2018-06-04T06:46:40.930Z,97583.75
2018-06-04T06:49:10.092Z,97582.83
2018-06-04T06:51:39.188Z,97585.28
2018-06-04T06:54:08.239Z,97578.27
2018-06-04T06:56:37.157Z,97582.04
2018-06-04T06:59:06.219Z,97578.95
2018-06-04T07:01:35.537Z,97577.61
2018-06-04T07:04:04.488Z,97573.80
2018-06-04T07:06:33.671Z,97571.86
2018-06-04T07:09:03.001Z,97573.47
2018-06-04T07:11:33.785Z,97573.52
2018-06-04T07:14:03.130Z,97570.97
2018-06-04T07:16:32.031Z,97575.31
2018-06-04T07:19:00.836Z,97572.91
2018-06-04T07:21:29.971Z,97563.33
2018-06-04T07:23:58.968Z,97558.25
2018-06-04T07:26:28.674Z,97566.12
2018-06-04T07:28:57.657Z,97561.42
2018-06-04T07:31:26.663Z,97559.45
2018-06-04T07:33:55.922Z,97560.30
2018-06-04T07:36:25.196Z,97559.73
2018-06-04T07:38:54.267Z,97558.92
2018-06-04T07:41:23.653Z,97556.17
2018-06-04T07:43:52.557Z,97553.05
2018-06-04T07:46:21.705Z,97551.45
2018-06-04T07:48:50.489Z,97543.61
2018-06-04T07:51:19.536Z,97544.78
2018-06-04T07:53:48.499Z,97542.61
2018-06-04T07:56:17.349Z,97545.94
2018-06-04T07:58:46.732Z,97543.98
2018-06-04T08:01:16.091Z,97545.38
2018-06-04T08:03:46.033Z,97538.08
2018-06-04T08:06:15.109Z,97536.88
2018-06-04T08:08:44.309Z,97536.08
2018-06-04T08:11:13.527Z,97530.91
2018-06-04T08:13:42.418Z,97534.66
2018-06-04T08:16:11.921Z,97533.42
2018-06-04T08:18:41.106Z,97528.86
2018-06-04T08:21:10.230Z,97522.72
2018-06-04T08:23:39.100Z,97521.30
2018-06-04T08:26:08.125Z,97517.91
2018-06-04T08:28:37.683Z,97515.89
2018-06-04T08:31:06.975Z,97521.30
2018-06-04T08:33:36.295Z,97516.78
2018-06-04T08:36:05.785Z,97519.28
2018-06-04T08:38:34.879Z,97516.59
2018-06-04T08:41:04.073Z,97513.88
2018-06-04T08:43:33.275Z,97514.74
2018-06-04T08:46:02.540Z,97514.97
2018-06-04T08:48:31.352Z,97513.25
2018-06-04T08:51:00.307Z,97516.29
2018-06-04T08:53:29.147Z,97513.50
2018-06-04T08:55:58.333Z,97512.28
2018-06-04T08:58:27.464Z,97511.34
2018-06-04T09:00:56.560Z,97513.33
2018-06-04T09:03:25.477Z,97512.19
2018-06-04T09:05:54.370Z,97505.66
2018-06-04T09:08:23.395Z,97506.63
2018-06-04T09:10:52.545Z,97500.90
2018-06-04T09:13:21.571Z,97501.48
2018-06-04T09:15:50.691Z,97500.37
2018-06-04T09:18:19.904Z,97504.20
2018-06-04T09:20:49.227Z,97503.52
2018-06-04T09:23:18.846Z,97499.91
2018-06-04T09:25:47.736Z,97498.95
2018-06-04T09:28:16.889Z,97503.52
2018-06-04T09:30:46.113Z,97498.35
2018-06-04T09:33:15.265Z,97500.48
2018-06-04T09:35:44.535Z,97495.38
2018-06-04T09:38:13.664Z,97500.25
2018-06-04T09:40:42.755Z,97502.86
2018-06-04T09:43:11.994Z,97502.27
2018-06-04T09:45:41.073Z,97499.55
2018-06-04T09:48:10.073Z,97503.53
2018-06-04T09:50:38.999Z,97505.94
2018-06-04T09:53:08.224Z,97502.66
2018-06-04T09:55:37.460Z,97495.13
2018-06-04T09:58:07.101Z,97486.85
2018-06-04T10:00:36.781Z,97490.48
2018-06-04T10:03:06.037Z,97484.81
2018-06-04T10:05:35.180Z,97482.47
2018-06-04T10:08:05.806Z,97482.11
2018-06-04T10:10:35.091Z,97481.51
2018-06-04T10:13:03.911Z,97480.19
2018-06-04T10:15:33.151Z,97478.31
2018-06-04T10:18:02.202Z,97478.48
2018-06-04T10:20:31.575Z,97471.97
2018-06-04T10:23:00.881Z,97469.75
2018-06-04T10:25:29.947Z,97470.25
2018-06-04T10:27:59.220Z,97464.63
2018-06-04T10:30:28.275Z,97463.98
2018-06-04T10:32:57.654Z,97457.81
2018-06-04T10:35:26.683Z,97460.41
2018-06-04T10:37:55.808Z,97461.52
2018-06-04T10:40:24.829Z,97458.89
2018-06-04T10:42:53.997Z,97455.16
2018-06-04T10:45:23.046Z,97452.14
2018-06-04T10:47:51.908Z,97454.20
2018-06-04T10:50:21.044Z,97450.91
2018-06-04T10:52:49.999Z,97451.62
2018-06-04T10:55:19.118Z,97446.29
2018-06-04T10:57:48.470Z,97439.77
2018-06-04T11:00:17.235Z,97447.77
2018-06-04T11:02:46.105Z,97441.36
2018-06-04T11:05:15.051Z,97440.27
2018-06-04T11:07:45.291Z,97437.75
2018-06-04T11:10:14.260Z,97445.19
2018-06-04T11:12:43.564Z,97437.64
2018-06-04T11:15:12.528Z,97434.31
2018-06-04T11:17:41.449Z,97429.49
2018-06-04T11:20:10.470Z,97432.05
2018-06-04T11:22:39.490Z,97420.59
2018-06-04T11:25:08.309Z,97421.51
2018-06-04T11:27:37.176Z,97422.81
2018-06-04T11:30:06.242Z,97416.80
2018-06-04T11:32:35.272Z,97416.01
2018-06-04T11:35:04.640Z,97411.91
2018-06-04T11:37:33.543Z,97410.77
2018-06-04T11:40:02.714Z,97408.91
2018-06-04T11:42:32.047Z,97412.25
2018-06-04T11:45:01.000Z,97403.83
2018-06-04T11:47:29.777Z,97407.23
2018-06-04T11:49:58.724Z,97401.05
2018-06-04T11:52:27.706Z,97398.98
2018-06-04T11:54:57.014Z,97400.70
2018-06-04T11:57:26.570Z,97392.58
2018-06-04T11:59:56.249Z,97395.80
2018-06-04T12:02:25.022Z,97392.09
2018-06-04T12:04:53.969Z,97393.63
2018-06-04T12:07:23.213Z,97384.58
2018-06-04T12:09:52.405Z,97388.33
2018-06-04T12:12:21.474Z,97380.00
2018-06-04T12:14:50.901Z,97383.79
2018-06-04T12:17:21.621Z,97368.49
2018-06-04T12:19:50.795Z,97368.98
2018-06-04T12:22:20.014Z,97364.69
2018-06-04T12:24:48.989Z,97367.14
2018-06-04T12:27:18.211Z,97362.78
2018-06-04T12:29:46.977Z,97364.57
2018-06-04T12:32:16.051Z,97348.49
2018-06-04T12:34:45.209Z,97353.16
2018-06-04T12:37:14.528Z,97357.23
2018-06-04T12:39:43.450Z,97342.69
2018-06-04T12:42:12.285Z,97337.86
2018-06-04T12:44:41.397Z,97333.53
2018-06-04T12:47:10.354Z,97332.86
2018-06-04T12:49:40.913Z,97330.97
2018-06-04T12:52:10.163Z,97322.34
2018-06-04T12:54:39.308Z,97324.27
2018-06-04T12:57:08.374Z,97315.89
2018-06-04T12:59:37.337Z,97318.90
2018-06-04T13:02:06.374Z,97314.02
2018-06-04T13:04:35.607Z,97314.13
2018-06-04T13:07:04.534Z,97311.09
2018-06-04T13:09:34.053Z,97311.50
2018-06-04T13:12:03.291Z,97310.83
2018-06-04T13:14:32.422Z,97306.38
2018-06-04T13:17:01.463Z,97307.97
2018-06-04T13:19:30.730Z,97296.91
2018-06-04T13:21:59.895Z,97295.01
2018-06-04T13:24:28.793Z,97288.18
2018-06-04T13:26:57.838Z,97281.52
2018-06-04T13:29:27.256Z,97281.81
2018-06-04T13:31:56.132Z,97280.64
2018-06-04T13:34:31.549Z,97274.99
2018-06-04T13:37:00.954Z,97271.10
2018-06-04T13:39:29.782Z,97253.26
2018-06-04T13:41:59.243Z,97250.95
2018-06-04T13:44:28.194Z,97248.79
2018-06-04T13:46:57.373Z,97250.82
2018-06-04T13:49:28.590Z,97246.95
2018-06-04T13:51:57.838Z,97243.81
2018-06-04T13:54:27.320Z,97234.45
2018-06-04T13:56:56.190Z,97239.66
2018-06-04T13:59:25.225Z,97238.38
2018-06-04T14:01:54.407Z,97235.05
2018-06-04T14:04:23.348Z,97224.84
2018-06-04T14:06:54.552Z,97229.13
2018-06-04T14:09:23.789Z,97221.14
2018-06-04T14:11:52.617Z,97219.27
2018-06-04T14:14:21.698Z,97217.38
2018-06-04T14:16:51.889Z,97212.26
2018-06-04T14:19:20.664Z,97210.25
2018-06-04T14:21:49.843Z,97211.89
2018-06-04T14:24:19.040Z,97204.74
2018-06-04T14:26:47.799Z,97210.05
2018-06-04T14:29:16.904Z,97199.55
2018-06-04T14:31:45.958Z,97209.75
2018-06-04T14:34:14.775Z,97202.48
2018-06-04T14:36:43.744Z,97197.89
2018-06-04T14:39:12.948Z,97210.73
2018-06-04T14:41:41.787Z,97200.04
2018-06-04T14:44:10.650Z,97194.77
2018-06-04T14:46:39.585Z,97193.70
2018-06-04T14:49:08.445Z,97185.52
2018-06-04T14:51:37.791Z,97177.85
2018-06-04T14:54:07.305Z,97171.97
2018-06-04T14:56:36.169Z,97174.75
2018-06-04T14:59:05.317Z,97170.83
2018-06-04T15:01:34.359Z,97174.00
2018-06-04T15:04:04.133Z,97170.54
2018-06-04T15:06:33.030Z,97164.17
2018-06-04T15:09:01.864Z,97170.17
2018-06-04T15:11:30.740Z,97165.92
2018-06-04T15:14:00.072Z,97167.59
2018-06-04T15:16:29.269Z,97161.30
2018-06-04T15:18:58.509Z,97167.39
2018-06-04T15:21:27.592Z,97164.62
2018-06-04T15:23:57.067Z,97168.04
2018-06-04T15:26:26.063Z,97168.70
2018-06-04T15:28:55.439Z,97169.78
2018-06-04T15:31:24.422Z,97170.64
2018-06-04T15:33:53.287Z,97162.94
2018-06-04T15:36:22.230Z,97162.86
2018-06-04T15:38:51.025Z,97157.31
2018-06-04T15:41:20.248Z,97163.22
2018-06-04T15:43:49.303Z,97165.47
2018-06-04T15:46:18.416Z,97156.96
2018-06-04T15:48:47.214Z,97152.09
2018-06-04T15:51:16.078Z,97157.64
2018-06-04T15:53:45.374Z,97149.93
2018-06-04T15:56:15.191Z,97149.73
2018-06-04T15:58:44.204Z,97142.77
2018-06-04T16:01:13.428Z,97142.25
2018-06-04T16:03:42.579Z,97134.22
2018-06-04T16:06:11.693Z,97143.72
2018-06-04T16:08:41.419Z,97139.94
2018-06-04T16:11:16.547Z,97141.14
2018-06-04T16:13:45.397Z,97135.95
2018-06-04T16:16:14.623Z,97137.50
2018-06-04T16:18:43.614Z,97136.70
2018-06-04T16:21:12.696Z,97133.00
2018-06-04T16:23:41.779Z,97130.23
2018-06-04T16:26:10.853Z,97133.53
2018-06-04T16:28:39.937Z,97126.67
2018-06-04T16:31:09.443Z,97121.73
2018-06-04T16:33:38.408Z,97117.95
2018-06-04T16:36:07.443Z,97123.72
2018-06-04T16:38:36.399Z,97117.04
2018-06-04T16:41:05.452Z,97117.48
2018-06-04T16:43:34.620Z,97119.09
2018-06-04T16:46:03.580Z,97118.14
2018-06-04T16:48:32.632Z,97121.24
2018-06-04T16:51:01.528Z,97119.03
2018-06-04T16:53:30.324Z,97118.66
2018-06-04T16:55:59.068Z,97112.95
2018-06-04T16:58:27.968Z,97115.89
2018-06-04T17:00:57.353Z,97117.28
2018-06-04T17:03:26.243Z,97111.88
2018-06-04T17:05:55.503Z,97110.44
2018-06-04T17:08:24.286Z,97113.58
2018-06-04T17:10:53.330Z,97113.03
2018-06-04T17:13:22.191Z,97111.41
2018-06-04T17:15:51.211Z,97120.44
2018-06-04T17:18:20.434Z,97114.53
2018-06-04T17:20:49.550Z,97113.39
2018-06-04T17:23:18.522Z,97115.24
2018-06-04T17:25:47.385Z,97119.52
2018-06-04T17:28:16.854Z,97119.86
2018-06-04T17:30:46.028Z,97122.21
2018-06-04T17:33:14.982Z,97126.77
2018-06-04T17:35:43.848Z,97124.30
2018-06-04T17:38:12.961Z,97124.69
2018-06-04T17:40:41.885Z,97122.06
2018-06-04T17:43:10.979Z,97124.98
2018-06-04T17:45:40.145Z,97129.97
2018-06-04T17:48:09.267Z,97124.05
2018-06-04T17:50:38.282Z,97128.62
2018-06-04T17:53:07.179Z,97123.59
2018-06-04T17:55:36.175Z,97122.50
2018-06-04T17:58:05.558Z,97126.24
2018-06-04T18:00:34.671Z,97126.30
2018-06-04T18:03:03.936Z,97130.41
2018-06-04T18:05:33.055Z,97135.50
2018-06-04T18:08:02.519Z,97133.36
2018-06-04T18:10:31.689Z,97124.38
2018-06-04T18:13:00.723Z,97124.23
2018-06-04T18:15:29.938Z,97121.08
2018-06-04T18:17:58.830Z,97130.38
2018-06-04T18:20:28.303Z,97130.30
2018-06-04T18:22:57.223Z,97129.03
2018-06-04T18:25:26.028Z,97132.43
2018-06-04T18:27:54.891Z,97143.41
2018-06-04T18:30:23.991Z,97139.33
2018-06-04T18:32:53.143Z,97146.52
2018-06-04T18:35:25.231Z,97143.70
2018-06-04T18:37:54.061Z,97143.28
2018-06-04T18:40:23.420Z,97142.73
2018-06-04T18:42:52.704Z,97139.52
2018-06-04T18:45:21.470Z,97145.47
2018-06-04T18:47:51.581Z,97143.53
2018-06-04T18:50:20.391Z,97145.47
2018-06-04T18:52:49.793Z,97142.94
2018-06-04T18:55:18.932Z,97142.91
2018-06-04T18:57:47.742Z,97157.52
2018-06-04T19:00:16.974Z,97159.48
2018-06-04T19:02:45.981Z,97161.91
2018-06-04T19:05:14.838Z,97164.29
2018-06-04T19:07:43.976Z,97164.67
2018-06-04T19:10:13.034Z,97166.95
2018-06-04T19:12:42.084Z,97172.50
2018-06-04T19:15:11.000Z,97179.81
2018-06-04T19:17:39.745Z,97177.37
2018-06-04T19:20:08.581Z,97174.66
2018-06-04T19:22:37.750Z,97174.13
2018-06-04T19:25:06.837Z,97179.95
2018-06-04T19:27:35.904Z,97180.30
2018-06-04T19:30:05.347Z,97182.56
2018-06-04T19:32:34.206Z,97194.67
2018-06-04T19:35:03.156Z,97192.00
2018-06-04T19:37:32.353Z,97203.03
2018-06-04T19:40:01.615Z,97203.20
2018-06-04T19:42:30.771Z,97207.59
2018-06-04T19:44:59.613Z,97212.56
2018-06-04T19:47:28.789Z,97219.13
2018-06-04T19:49:58.137Z,97225.75
2018-06-04T19:52:27.790Z,97231.95
2018-06-04T19:54:56.808Z,97230.53
2018-06-04T19:57:26.251Z,97237.98
2018-06-04T19:59:55.215Z,97244.14
2018-06-04T20:02:24.180Z,97243.62
2018-06-04T20:04:53.001Z,97242.25
2018-06-04T20:07:21.871Z,97249.81
2018-06-04T20:09:50.655Z,97256.56
2018-06-04T20:12:20.468Z,97255.22
2018-06-04T20:14:49.473Z,97256.80
2018-06-04T20:17:18.456Z,97256.84
2018-06-04T20:19:47.485Z,97264.22
2018-06-04T20:22:16.640Z,97268.62
2018-06-04T20:24:45.508Z,97274.93
2018-06-04T20:27:14.653Z,97281.82
2018-06-04T20:29:43.950Z,97279.30
2018-06-04T20:32:12.709Z,97277.77
2018-06-04T20:34:41.669Z,97277.97
2018-06-04T20:37:10.527Z,97283.16
2018-06-04T20:39:39.658Z,97283.38
2018-06-04T20:42:08.532Z,97283.97
2018-06-04T20:44:37.659Z,97284.60
2018-06-04T20:47:06.727Z,97287.77
2018-06-04T20:49:35.837Z,97293.66
2018-06-04T20:52:04.919Z,97291.94
2018-06-04T20:54:34.075Z,97291.16
2018-06-04T20:57:03.168Z,97293.13
2018-06-04T20:59:32.325Z,97299.67
2018-06-04T21:02:01.115Z,97299.48
2018-06-04T21:04:30.363Z,97301.86
2018-06-04T21:06:59.951Z,97301.89
2018-06-04T21:09:29.511Z,97296.38
2018-06-04T21:11:58.395Z,97301.89
2018-06-04T21:14:27.230Z,97305.27
2018-06-04T21:16:56.663Z,97304.47
2018-06-04T21:19:25.571Z,97310.78
2018-06-04T21:21:54.690Z,97312.77
2018-06-04T21:24:23.708Z,97303.75
2018-06-04T21:26:52.679Z,97305.72
2018-06-04T21:29:21.644Z,97307.87
2018-06-04T21:31:50.548Z,97305.52
2018-06-04T21:34:19.464Z,97316.72
2018-06-04T21:36:48.263Z,97309.25
2018-06-04T21:39:17.053Z,97313.02
2018-06-04T21:41:45.913Z,97311.84
2018-06-04T21:44:15.072Z,97316.95
2018-06-04T21:46:43.994Z,97317.14
2018-06-04T21:49:17.099Z,97324.61
2018-06-04T21:51:46.101Z,97315.39
2018-06-04T21:54:15.133Z,97322.05
2018-06-04T21:56:44.218Z,97318.15
2018-06-04T21:59:13.580Z,97319.31
2018-06-04T22:01:42.733Z,97319.11
2018-06-04T22:04:11.769Z,97319.89
2018-06-04T22:06:40.784Z,97316.36
2018-06-04T22:09:10.765Z,97321.88
2018-06-04T22:11:39.680Z,97321.28
2018-06-04T22:14:08.786Z,97323.83
2018-06-04T22:16:37.981Z,97328.16
2018-06-04T22:19:06.799Z,97330.89
2018-06-04T22:21:35.604Z,97338.57
2018-06-04T22:24:04.448Z,97336.41
2018-06-04T22:26:33.683Z,97333.64
2018-06-04T22:29:03.030Z,97334.63
2018-06-04T22:31:32.053Z,97337.00
2018-06-04T22:34:01.065Z,97335.21
2018-06-04T22:36:29.941Z,97340.92
2018-06-04T22:38:58.974Z,97339.48
2018-06-04T22:41:28.051Z,97335.38
2018-06-04T22:43:56.879Z,97331.63
2018-06-04T22:46:26.077Z,97334.94
2018-06-04T22:48:55.030Z,97333.18
2018-06-04T22:51:23.869Z,97329.45
2018-06-04T22:53:52.653Z,97329.06
2018-06-04T22:56:21.800Z,97334.36
2018-06-04T22:58:50.609Z,97333.16
2018-06-04T23:01:19.788Z,97340.80
2018-06-04T23:03:48.941Z,97330.01
2018-06-04T23:06:17.991Z,97331.58
2018-06-04T23:08:46.848Z,97324.30
2018-06-04T23:11:15.765Z,97324.86
2018-06-04T23:13:44.999Z,97324.30
2018-06-04T23:16:13.998Z,97322.52
2018-06-04T23:18:42.973Z,97324.44
2018-06-04T23:21:11.813Z,97316.21
2018-06-04T23:23:40.996Z,97318.14
2018-06-04T23:26:10.237Z,97317.16
2018-06-04T23:28:39.211Z,97310.83
2018-06-04T23:31:09.286Z,97308.67
2018-06-04T23:33:38.626Z,97307.47
2018-06-04T23:36:08.033Z,97312.92
2018-06-04T23:38:37.127Z,97310.60
2018-06-04T23:41:06.592Z,97308.05
2018-06-04T23:43:35.463Z,97311.94
2018-06-04T23:46:04.443Z,97312.92
2018-06-04T23:48:33.347Z,97310.53
2018-06-04T23:51:02.456Z,97313.24
2018-06-04T23:53:31.536Z,97306.97
2018-06-04T23:56:00.545Z,97305.59
2018-06-04T23:58:29.441Z,97299.52
